sensor_id;sensor_type;location;lat;lon;timestamp;pressure;altitude;pressure_sealevel;temperature;humidity
24962;BME280;12992;50.884;13.668;2023-05-11T00:00:06;97095.03;;;10.28;100.00
24962;BME280;12992;50.884;13.668;2023-05-11T00:02:32;97092.91;;;10.35;100.00
24962;BME280;12992;50.884;13.668;2023-05-11T00:04:57;97104.09;;;10.38;100.00
24962;BME280;12992;50.884;13.668;2023-05-11T00:07:23;97107.09;;;10.42;100.00
24962;BME280;12992;50.884;13.668;2023-05-11T00:09:48;97105.78;;;10.44;100.00
24962;BME280;12992;50.884;13.668;2023-05-11T00:12:13;97106.41;;;10.57;100.00
24962;BME280;12992;50.884;13.668;2023-05-11T00:14:39;97097.97;;;10.58;100.00
24962;BME280;12992;50.884;13.668;2023-05-11T00:17:04;97072.50;;;10.37;100.00
24962;BME280;12992;50.884;13.668;2023-05-11T00:19:30;97078.44;;;10.29;100.00
24962;BME280;12992;50.884;13.668;2023-05-11T00:21:56;97079.50;;;10.28;100.00
24962;BME280;12992;50.884;13.668;2023-05-11T00:24:22;97081.69;;;10.26;100.00
24962;BME280;12992;50.884;13.668;2023-05-11T00:26:47;97082.41;;;10.21;100.00
24962;BME280;12992;50.884;13.668;2023-05-11T00:29:13;97093.66;;;10.30;100.00
24962;BME280;12992;50.884;13.668;2023-05-11T00:31:38;97084.41;;;10.26;100.00
24962;BME280;12992;50.884;13.668;2023-05-11T00:34:03;97067.63;;;10.12;100.00
24962;BME280;12992;50.884;13.668;2023-05-11T00:36:29;97084.78;;;10.13;100.00
24962;BME280;12992;50.884;13.668;2023-05-11T00:38:54;97079.91;;;10.15;100.00
24962;BME280;12992;50.884;13.668;2023-05-11T00:41:20;97095.94;;;10.11;100.00
24962;BME280;12992;50.884;13.668;2023-05-11T00:43:45;97091.84;;;10.09;100.00
24962;BME280;12992;50.884;13.668;2023-05-11T00:46:11;97114.63;;;10.30;100.00
24962;BME280;12992;50.884;13.668;2023-05-11T00:48:36;97106.25;;;10.36;100.00
24962;BME280;12992;50.884;13.668;2023-05-11T00:51:03;97098.59;;;10.33;100.00
24962;BME280;12992;50.884;13.668;2023-05-11T00:53:28;97097.75;;;10.33;100.00
24962;BME280;12992;50.884;13.668;2023-05-11T00:55:53;97106.34;;;10.46;100.00
24962;BME280;12992;50.884;13.668;2023-05-11T00:58:19;97102.00;;;10.50;100.00
24962;BME280;12992;50.884;13.668;2023-05-11T01:00:44;97104.50;;;10.57;100.00
24962;BME280;12992;50.884;13.668;2023-05-11T01:03:12;97114.44;;;10.73;100.00
24962;BME280;12992;50.884;13.668;2023-05-11T01:06:18;97108.22;;;10.78;100.00
24962;BME280;12992;50.884;13.668;2023-05-11T01:08:56;97093.53;;;10.84;100.00
24962;BME280;12992;50.884;13.668;2023-05-11T01:13:56;97104.41;;;10.79;100.00
24962;BME280;12992;50.884;13.668;2023-05-11T01:16:24;97093.19;;;10.75;100.00
24962;BME280;12992;50.884;13.668;2023-05-11T01:19:00;97110.19;;;10.88;100.00
24962;BME280;12992;50.884;13.668;2023-05-11T01:21:31;97117.88;;;10.96;100.00
24962;BME280;12992;50.884;13.668;2023-05-11T01:32:47;97106.84;;;10.81;100.00
24962;BME280;12992;50.884;13.668;2023-05-11T01:35:21;97110.72;;;10.90;100.00
24962;BME280;12992;50.884;13.668;2023-05-11T01:37:50;97103.31;;;10.80;100.00
24962;BME280;12992;50.884;13.668;2023-05-11T01:40:17;97109.38;;;10.92;100.00
24962;BME280;12992;50.884;13.668;2023-05-11T01:42:50;97105.56;;;10.88;100.00
24962;BME280;12992;50.884;13.668;2023-05-11T01:45:19;97101.13;;;10.82;100.00
24962;BME280;12992;50.884;13.668;2023-05-11T01:47:49;97099.47;;;10.76;100.00
24962;BME280;12992;50.884;13.668;2023-05-11T01:50:16;97092.31;;;10.65;100.00
24962;BME280;12992;50.884;13.668;2023-05-11T01:52:43;97084.59;;;10.52;100.00
24962;BME280;12992;50.884;13.668;2023-05-11T01:55:11;97085.31;;;10.42;100.00
24962;BME280;12992;50.884;13.668;2023-05-11T01:57:38;97086.88;;;10.33;100.00
24962;BME280;12992;50.884;13.668;2023-05-11T02:00:05;97090.34;;;10.23;100.00
24962;BME280;12992;50.884;13.668;2023-05-11T02:02:38;97088.94;;;10.20;100.00
24962;BME280;12992;50.884;13.668;2023-05-11T02:05:05;97086.38;;;10.09;100.00
24962;BME280;12992;50.884;13.668;2023-05-11T02:07:33;97083.31;;;10.00;100.00
24962;BME280;12992;50.884;13.668;2023-05-11T02:10:01;97080.72;;;9.88;100.00
24962;BME280;12992;50.884;13.668;2023-05-11T02:12:27;97090.78;;;9.88;100.00
24962;BME280;12992;50.884;13.668;2023-05-11T02:14:54;97093.78;;;9.86;100.00
24962;BME280;12992;50.884;13.668;2023-05-11T02:17:20;97085.59;;;9.81;100.00
24962;BME280;12992;50.884;13.668;2023-05-11T02:19:47;97096.66;;;9.75;100.00
24962;BME280;12992;50.884;13.668;2023-05-11T02:22:15;97083.44;;;9.61;100.00
24962;BME280;12992;50.884;13.668;2023-05-11T02:24:41;97077.34;;;9.49;100.00
24962;BME280;12992;50.884;13.668;2023-05-11T02:27:06;97088.53;;;9.53;100.00
24962;BME280;12992;50.884;13.668;2023-05-11T02:29:32;97105.91;;;9.74;100.00
24962;BME280;12992;50.884;13.668;2023-05-11T02:32:08;97105.56;;;9.70;100.00
24962;BME280;12992;50.884;13.668;2023-05-11T02:34:41;97103.09;;;9.69;100.00
24962;BME280;12992;50.884;13.668;2023-05-11T02:37:17;97113.34;;;9.83;100.00
24962;BME280;12992;50.884;13.668;2023-05-11T02:39:47;97117.25;;;9.92;100.00
24962;BME280;12992;50.884;13.668;2023-05-11T02:42:21;97132.59;;;10.04;100.00
24962;BME280;12992;50.884;13.668;2023-05-11T02:45:00;97127.03;;;10.20;100.00
24962;BME280;12992;50.884;13.668;2023-05-11T02:47:29;97118.63;;;10.22;100.00
24962;BME280;12992;50.884;13.668;2023-05-11T02:49:57;97126.53;;;10.24;100.00
24962;BME280;12992;50.884;13.668;2023-05-11T02:52:28;97131.47;;;10.27;100.00
24962;BME280;12992;50.884;13.668;2023-05-11T02:54:56;97136.19;;;10.36;100.00
24962;BME280;12992;50.884;13.668;2023-05-11T02:57:24;97137.31;;;10.40;100.00
24962;BME280;12992;50.884;13.668;2023-05-11T02:59:50;97139.88;;;10.52;100.00
24962;BME280;12992;50.884;13.668;2023-05-11T03:02:16;97120.56;;;10.54;100.00
24962;BME280;12992;50.884;13.668;2023-05-11T03:04:42;97124.44;;;10.63;100.00
24962;BME280;12992;50.884;13.668;2023-05-11T03:07:07;97109.06;;;10.46;100.00
24962;BME280;12992;50.884;13.668;2023-05-11T03:09:33;97120.22;;;10.45;100.00
24962;BME280;12992;50.884;13.668;2023-05-11T03:11:59;97115.53;;;10.40;100.00
24962;BME280;12992;50.884;13.668;2023-05-11T03:14:27;97111.13;;;10.34;100.00
24962;BME280;12992;50.884;13.668;2023-05-11T03:16:55;97118.72;;;10.32;100.00
24962;BME280;12992;50.884;13.668;2023-05-11T03:19:21;97121.72;;;10.31;100.00
24962;BME280;12992;50.884;13.668;2023-05-11T03:21:48;97128.59;;;10.38;100.00
24962;BME280;12992;50.884;13.668;2023-05-11T03:24:15;97135.94;;;10.38;100.00
24962;BME280;12992;50.884;13.668;2023-05-11T03:26:42;97132.38;;;10.37;100.00
24962;BME280;12992;50.884;13.668;2023-05-11T03:29:08;97134.84;;;10.39;100.00
24962;BME280;12992;50.884;13.668;2023-05-11T03:31:35;97147.16;;;10.46;100.00
24962;BME280;12992;50.884;13.668;2023-05-11T03:34:01;97142.88;;;10.56;100.00
24962;BME280;12992;50.884;13.668;2023-05-11T03:36:29;97129.47;;;10.49;100.00
24962;BME280;12992;50.884;13.668;2023-05-11T03:38:56;97142.59;;;10.52;100.00
24962;BME280;12992;50.884;13.668;2023-05-11T03:41:26;97133.28;;;10.48;100.00
24962;BME280;12992;50.884;13.668;2023-05-11T03:43:55;97145.53;;;10.45;100.00
24962;BME280;12992;50.884;13.668;2023-05-11T03:46:22;97139.75;;;10.42;100.00
24962;BME280;12992;50.884;13.668;2023-05-11T03:48:49;97142.25;;;10.43;100.00
24962;BME280;12992;50.884;13.668;2023-05-11T03:51:19;97138.59;;;10.33;100.00
24962;BME280;12992;50.884;13.668;2023-05-11T03:53:45;97147.56;;;10.33;100.00
24962;BME280;12992;50.884;13.668;2023-05-11T03:56:10;97135.06;;;10.32;100.00
24962;BME280;12992;50.884;13.668;2023-05-11T03:58:38;97142.94;;;10.29;100.00
24962;BME280;12992;50.884;13.668;2023-05-11T04:01:06;97154.16;;;10.37;100.00
24962;BME280;12992;50.884;13.668;2023-05-11T04:03:33;97155.28;;;10.41;100.00
24962;BME280;12992;50.884;13.668;2023-05-11T04:05:59;97143.84;;;10.39;100.00
24962;BME280;12992;50.884;13.668;2023-05-11T04:08:24;97149.09;;;10.51;100.00
24962;BME280;12992;50.884;13.668;2023-05-11T04:10:49;97142.34;;;10.54;100.00
24962;BME280;12992;50.884;13.668;2023-05-11T04:13:15;97144.25;;;10.53;100.00
24962;BME280;12992;50.884;13.668;2023-05-11T04:15:40;97143.44;;;10.58;100.00
24962;BME280;12992;50.884;13.668;2023-05-11T04:18:06;97153.59;;;10.67;100.00
24962;BME280;12992;50.884;13.668;2023-05-11T04:20:31;97149.84;;;10.73;100.00
24962;BME280;12992;50.884;13.668;2023-05-11T04:22:57;97148.00;;;10.84;100.00
24962;BME280;12992;50.884;13.668;2023-05-11T04:25:23;97136.06;;;10.90;100.00
24962;BME280;12992;50.884;13.668;2023-05-11T04:27:48;97146.50;;;11.03;100.00
24962;BME280;12992;50.884;13.668;2023-05-11T04:30:13;97148.22;;;11.15;100.00
24962;BME280;12992;50.884;13.668;2023-05-11T04:32:39;97155.41;;;11.36;100.00
24962;BME280;12992;50.884;13.668;2023-05-11T04:35:05;97157.94;;;11.53;100.00
24962;BME280;12992;50.884;13.668;2023-05-11T04:37:34;97156.94;;;11.69;100.00
24962;BME280;12992;50.884;13.668;2023-05-11T04:40:01;97153.22;;;11.85;100.00
24962;BME280;12992;50.884;13.668;2023-05-11T04:42:32;97158.44;;;12.02;100.00
24962;BME280;12992;50.884;13.668;2023-05-11T04:45:00;97158.44;;;12.07;100.00
24962;BME280;12992;50.884;13.668;2023-05-11T04:47:26;97155.44;;;12.04;100.00
24962;BME280;12992;50.884;13.668;2023-05-11T04:49:52;97171.06;;;12.34;100.00
24962;BME280;12992;50.884;13.668;2023-05-11T04:52:17;97165.09;;;12.57;100.00
24962;BME280;12992;50.884;13.668;2023-05-11T04:54:46;97162.91;;;12.69;100.00
24962;BME280;12992;50.884;13.668;2023-05-11T04:57:11;97147.63;;;12.73;100.00
24962;BME280;12992;50.884;13.668;2023-05-11T04:59:37;97126.84;;;12.57;100.00
24962;BME280;12992;50.884;13.668;2023-05-11T05:02:03;97126.28;;;12.75;100.00
24962;BME280;12992;50.884;13.668;2023-05-11T05:04:28;97120.53;;;12.72;100.00
24962;BME280;12992;50.884;13.668;2023-05-11T05:06:53;97114.00;;;12.83;100.00
24962;BME280;12992;50.884;13.668;2023-05-11T05:09:19;97124.59;;;13.05;100.00
24962;BME280;12992;50.884;13.668;2023-05-11T05:11:44;97137.13;;;13.42;100.00
24962;BME280;12992;50.884;13.668;2023-05-11T05:14:10;97149.81;;;13.87;98.54
24962;BME280;12992;50.884;13.668;2023-05-11T05:16:36;97166.69;;;14.59;92.19
24962;BME280;12992;50.884;13.668;2023-05-11T05:19:01;97177.75;;;15.41;85.94
24962;BME280;12992;50.884;13.668;2023-05-11T05:21:29;97147.06;;;16.05;80.31
24962;BME280;12992;50.884;13.668;2023-05-11T05:23:55;97136.34;;;16.28;77.04
24962;BME280;12992;50.884;13.668;2023-05-11T05:26:20;97113.75;;;16.31;77.32
24962;BME280;12992;50.884;13.668;2023-05-11T05:28:47;97086.44;;;16.21;80.25
24962;BME280;12992;50.884;13.668;2023-05-11T05:31:13;97060.88;;;15.82;77.96
24962;BME280;12992;50.884;13.668;2023-05-11T05:33:38;97020.09;;;15.28;80.32
24962;BME280;12992;50.884;13.668;2023-05-11T05:36:04;97019.88;;;15.00;81.80
24962;BME280;12992;50.884;13.668;2023-05-11T05:38:29;97019.66;;;14.97;80.84
24962;BME280;12992;50.884;13.668;2023-05-11T05:40:56;97025.25;;;14.87;81.46
24962;BME280;12992;50.884;13.668;2023-05-11T05:43:22;97030.66;;;14.92;82.15
24962;BME280;12992;50.884;13.668;2023-05-11T05:45:48;97013.84;;;14.74;82.75
24962;BME280;12992;50.884;13.668;2023-05-11T05:48:13;97025.69;;;14.70;85.54
24962;BME280;12992;50.884;13.668;2023-05-11T05:50:39;97035.97;;;14.83;84.31
24962;BME280;12992;50.884;13.668;2023-05-11T05:53:04;97033.78;;;14.85;83.17
24962;BME280;12992;50.884;13.668;2023-05-11T05:55:30;97049.31;;;14.95;82.92
24962;BME280;12992;50.884;13.668;2023-05-11T05:57:56;97051.03;;;15.10;81.97
24962;BME280;12992;50.884;13.668;2023-05-11T06:00:21;97059.22;;;15.15;80.76
24962;BME280;12992;50.884;13.668;2023-05-11T06:02:55;97030.66;;;14.92;82.35
24962;BME280;12992;50.884;13.668;2023-05-11T06:05:24;97038.63;;;14.93;82.33
24962;BME280;12992;50.884;13.668;2023-05-11T06:07:50;97054.91;;;15.09;81.55
24962;BME280;12992;50.884;13.668;2023-05-11T06:10:15;97048.59;;;15.08;81.08
24962;BME280;12992;50.884;13.668;2023-05-11T06:12:42;97026.00;;;14.92;84.47
24962;BME280;12992;50.884;13.668;2023-05-11T06:15:08;97049.19;;;15.05;86.05
24962;BME280;12992;50.884;13.668;2023-05-11T06:17:37;97068.91;;;15.31;83.58
24962;BME280;12992;50.884;13.668;2023-05-11T06:20:03;97062.75;;;15.20;84.35
24962;BME280;12992;50.884;13.668;2023-05-11T06:22:29;97048.31;;;15.10;87.86
24962;BME280;12992;50.884;13.668;2023-05-11T06:24:55;97062.97;;;15.24;85.54
24962;BME280;12992;50.884;13.668;2023-05-11T06:27:20;97071.50;;;15.46;80.89
24962;BME280;12992;50.884;13.668;2023-05-11T06:29:47;97088.66;;;15.57;84.13
24962;BME280;12992;50.884;13.668;2023-05-11T06:32:13;97098.69;;;15.91;77.63
24962;BME280;12992;50.884;13.668;2023-05-11T06:34:38;97069.34;;;15.86;78.91
24962;BME280;12992;50.884;13.668;2023-05-11T06:37:04;97090.00;;;16.02;77.99
24962;BME280;12992;50.884;13.668;2023-05-11T06:39:30;97058.06;;;15.88;77.86
24962;BME280;12992;50.884;13.668;2023-05-11T06:41:55;97073.97;;;16.09;75.97
24962;BME280;12992;50.884;13.668;2023-05-11T06:44:20;97070.53;;;16.18;75.69
24962;BME280;12992;50.884;13.668;2023-05-11T06:46:51;97081.97;;;16.25;76.69
24962;BME280;12992;50.884;13.668;2023-05-11T06:49:16;97068.31;;;16.20;76.94
24962;BME280;12992;50.884;13.668;2023-05-11T06:51:43;97069.34;;;16.24;76.23
24962;BME280;12992;50.884;13.668;2023-05-11T06:54:09;97041.72;;;16.15;77.86
24962;BME280;12992;50.884;13.668;2023-05-11T06:56:35;97041.81;;;16.10;77.45
24962;BME280;12992;50.884;13.668;2023-05-11T06:59:01;97070.53;;;16.18;79.51
24962;BME280;12992;50.884;13.668;2023-05-11T07:01:26;97065.91;;;16.32;76.83
24962;BME280;12992;50.884;13.668;2023-05-11T07:03:55;97076.16;;;16.45;76.85
24962;BME280;12992;50.884;13.668;2023-05-11T07:06:20;97056.63;;;16.47;76.51
24962;BME280;12992;50.884;13.668;2023-05-11T07:08:45;97072.28;;;16.46;76.64
24962;BME280;12992;50.884;13.668;2023-05-11T07:11:11;97070.25;;;16.52;75.54
24962;BME280;12992;50.884;13.668;2023-05-11T07:13:37;97066.31;;;16.58;75.99
24962;BME280;12992;50.884;13.668;2023-05-11T07:16:02;97052.53;;;16.44;76.63
24962;BME280;12992;50.884;13.668;2023-05-11T07:18:27;97036.19;;;16.34;76.79
24962;BME280;12992;50.884;13.668;2023-05-11T07:20:53;97072.13;;;16.56;76.61
24962;BME280;12992;50.884;13.668;2023-05-11T07:23:18;97073.06;;;16.65;75.15
24962;BME280;12992;50.884;13.668;2023-05-11T07:25:43;97074.66;;;16.72;77.16
24962;BME280;12992;50.884;13.668;2023-05-11T07:28:09;97085.59;;;16.90;76.15
24962;BME280;12992;50.884;13.668;2023-05-11T07:30:34;97088.53;;;16.94;75.73
24962;BME280;12992;50.884;13.668;2023-05-11T07:33:00;97093.59;;;17.06;74.63
24962;BME280;12992;50.884;13.668;2023-05-11T07:35:25;97116.34;;;17.39;73.00
24962;BME280;12992;50.884;13.668;2023-05-11T07:37:51;97088.50;;;17.40;72.09
24962;BME280;12992;50.884;13.668;2023-05-11T07:40:16;97078.50;;;17.31;73.24
24962;BME280;12992;50.884;13.668;2023-05-11T07:42:42;97077.31;;;17.23;72.44
24962;BME280;12992;50.884;13.668;2023-05-11T07:45:08;97084.22;;;17.48;70.38
24962;BME280;12992;50.884;13.668;2023-05-11T07:47:33;97091.47;;;17.58;73.06
24962;BME280;12992;50.884;13.668;2023-05-11T07:49:59;97131.66;;;18.00;72.45
24962;BME280;12992;50.884;13.668;2023-05-11T07:52:24;97126.47;;;18.34;70.64
24962;BME280;12992;50.884;13.668;2023-05-11T07:54:49;97141.41;;;18.70;67.23
24962;BME280;12992;50.884;13.668;2023-05-11T07:57:15;97092.78;;;18.60;67.17
24962;BME280;12992;50.884;13.668;2023-05-11T07:59:40;97122.59;;;18.94;65.94
24962;BME280;12992;50.884;13.668;2023-05-11T08:02:06;97095.97;;;18.67;68.26
24962;BME280;12992;50.884;13.668;2023-05-11T08:04:32;97118.16;;;18.84;66.04
24962;BME280;12992;50.884;13.668;2023-05-11T08:06:57;97119.31;;;19.14;64.95
24962;BME280;12992;50.884;13.668;2023-05-11T08:09:23;97139.44;;;19.37;65.71
24962;BME280;12992;50.884;13.668;2023-05-11T08:11:48;97113.06;;;19.31;66.95
24962;BME280;12992;50.884;13.668;2023-05-11T08:14:14;97122.09;;;19.45;64.44
24962;BME280;12992;50.884;13.668;2023-05-11T08:16:39;97091.59;;;19.19;63.77
24962;BME280;12992;50.884;13.668;2023-05-11T08:19:05;97128.66;;;19.58;65.97
24962;BME280;12992;50.884;13.668;2023-05-11T08:21:30;97139.69;;;19.98;61.67
24962;BME280;12992;50.884;13.668;2023-05-11T08:23:57;97181.31;;;21.10;58.09
24962;BME280;12992;50.884;13.668;2023-05-11T08:26:22;97189.56;;;21.62;58.08
24962;BME280;12992;50.884;13.668;2023-05-11T08:28:47;97207.06;;;22.89;54.28
24962;BME280;12992;50.884;13.668;2023-05-11T08:31:13;97182.97;;;23.35;52.44
24962;BME280;12992;50.884;13.668;2023-05-11T08:33:38;97137.97;;;23.21;52.20
24962;BME280;12992;50.884;13.668;2023-05-11T08:36:04;97087.97;;;22.67;55.35
24962;BME280;12992;50.884;13.668;2023-05-11T08:38:30;97178.22;;;23.81;53.76
24962;BME280;12992;50.884;13.668;2023-05-11T08:40:55;97153.91;;;24.27;50.48
24962;BME280;12992;50.884;13.668;2023-05-11T08:43:21;97126.53;;;24.94;49.11
24962;BME280;12992;50.884;13.668;2023-05-11T08:45:49;97149.09;;;25.17;51.05
24962;BME280;12992;50.884;13.668;2023-05-11T08:48:18;97125.91;;;25.12;47.79
24962;BME280;12992;50.884;13.668;2023-05-11T08:50:45;97090.47;;;24.85;49.94
24962;BME280;12992;50.884;13.668;2023-05-11T08:53:11;97141.69;;;25.36;48.99
24962;BME280;12992;50.884;13.668;2023-05-11T08:55:38;97113.91;;;25.56;46.76
24962;BME280;12992;50.884;13.668;2023-05-11T08:58:05;97077.81;;;25.31;47.31
24962;BME280;12992;50.884;13.668;2023-05-11T09:00:32;97112.28;;;25.39;49.33
24962;BME280;12992;50.884;13.668;2023-05-11T09:02:58;97102.66;;;25.36;49.35
24962;BME280;12992;50.884;13.668;2023-05-11T09:05:25;97103.69;;;25.76;46.73
24962;BME280;12992;50.884;13.668;2023-05-11T09:07:53;97080.53;;;25.59;47.55
24962;BME280;12992;50.884;13.668;2023-05-11T09:10:20;97070.13;;;25.56;47.09
24962;BME280;12992;50.884;13.668;2023-05-11T09:12:45;97002.75;;;24.79;48.51
24962;BME280;12992;50.884;13.668;2023-05-11T09:15:10;97130.31;;;26.20;47.54
24962;BME280;12992;50.884;13.668;2023-05-11T09:17:36;97077.88;;;26.30;45.24
24962;BME280;12992;50.884;13.668;2023-05-11T09:20:03;97047.06;;;26.07;45.66
24962;BME280;12992;50.884;13.668;2023-05-11T09:22:40;97049.81;;;25.72;47.65
24962;BME280;12992;50.884;13.668;2023-05-11T09:25:10;97008.41;;;25.74;46.82
24962;BME280;12992;50.884;13.668;2023-05-11T09:27:40;97052.47;;;25.68;48.34
24962;BME280;12992;50.884;13.668;2023-05-11T09:30:13;96985.34;;;25.61;47.13
24962;BME280;12992;50.884;13.668;2023-05-11T09:32:52;97051.66;;;25.99;47.37
24962;BME280;12992;50.884;13.668;2023-05-11T09:35:29;97061.75;;;26.58;46.29
24962;BME280;12992;50.884;13.668;2023-05-11T09:38:02;97076.78;;;26.69;46.67
24962;BME280;12992;50.884;13.668;2023-05-11T09:40:33;97041.34;;;26.54;44.77
24962;BME280;12992;50.884;13.668;2023-05-11T09:42:59;97095.25;;;27.13;46.23
24962;BME280;12992;50.884;13.668;2023-05-11T09:45:41;97122.13;;;28.05;46.22
24962;BME280;12992;50.884;13.668;2023-05-11T09:50:45;97030.91;;;26.90;45.18
24962;BME280;12992;50.884;13.668;2023-05-11T09:53:11;97060.31;;;27.22;47.53
24962;BME280;12992;50.884;13.668;2023-05-11T09:55:36;97053.34;;;27.81;43.68
24962;BME280;12992;50.884;13.668;2023-05-11T09:58:02;97031.41;;;27.15;44.53
24962;BME280;12992;50.884;13.668;2023-05-11T10:00:31;97069.19;;;27.97;44.10
24962;BME280;12992;50.884;13.668;2023-05-11T10:03:04;97109.19;;;29.40;41.65
24962;BME280;12992;50.884;13.668;2023-05-11T10:05:39;96998.78;;;28.51;42.70
24962;BME280;12992;50.884;13.668;2023-05-11T10:08:05;97019.16;;;28.48;41.80
24962;BME280;12992;50.884;13.668;2023-05-11T10:10:32;96978.78;;;27.92;41.47
24962;BME280;12992;50.884;13.668;2023-05-11T10:13:00;96961.03;;;27.58;42.03
24962;BME280;12992;50.884;13.668;2023-05-11T10:15:26;96974.75;;;27.18;43.53
24962;BME280;12992;50.884;13.668;2023-05-11T10:17:53;96953.97;;;27.19;43.96
24962;BME280;12992;50.884;13.668;2023-05-11T10:20:20;96938.22;;;27.30;42.22
24962;BME280;12992;50.884;13.668;2023-05-11T10:22:45;96984.16;;;27.55;43.33
24962;BME280;12992;50.884;13.668;2023-05-11T10:25:12;96941.75;;;27.27;41.54
24962;BME280;12992;50.884;13.668;2023-05-11T10:27:38;96892.63;;;25.99;44.25
24962;BME280;12992;50.884;13.668;2023-05-11T10:30:06;96944.63;;;26.46;43.98
24962;BME280;12992;50.884;13.668;2023-05-11T10:32:34;96941.34;;;26.82;43.08
24962;BME280;12992;50.884;13.668;2023-05-11T10:35:02;96903.53;;;26.27;43.67
24962;BME280;12992;50.884;13.668;2023-05-11T10:37:27;96871.13;;;25.64;44.68
24962;BME280;12992;50.884;13.668;2023-05-11T10:39:53;96892.69;;;25.83;43.87
24962;BME280;12992;50.884;13.668;2023-05-11T10:45:18;96875.50;;;25.46;45.29
24962;BME280;12992;50.884;13.668;2023-05-11T10:57:03;96840.09;;;25.31;46.95
24962;BME280;12992;50.884;13.668;2023-05-11T11:00:39;96887.03;;;25.29;46.20
24962;BME280;12992;50.884;13.668;2023-05-11T11:02:39;96875.13;;;25.48;46.22
24962;BME280;12992;50.884;13.668;2023-05-11T11:05:05;96871.38;;;25.59;46.73
24962;BME280;12992;50.884;13.668;2023-05-11T11:07:59;96924.03;;;26.35;45.18
24962;BME280;12992;50.884;13.668;2023-05-11T11:10:30;96843.47;;;25.40;47.85
24962;BME280;12992;50.884;13.668;2023-05-11T11:13:06;96904.81;;;26.10;45.89
24962;BME280;12992;50.884;13.668;2023-05-11T11:18:24;96847.06;;;25.40;45.79
24962;BME280;12992;50.884;13.668;2023-05-11T11:20:51;96871.94;;;25.65;45.33
24962;BME280;12992;50.884;13.668;2023-05-11T11:26:06;96846.47;;;25.31;45.09
24962;BME280;12992;50.884;13.668;2023-05-11T11:31:29;96839.31;;;25.14;46.28
24962;BME280;12992;50.884;13.668;2023-05-11T11:33:55;96874.72;;;24.98;47.09
24962;BME280;12992;50.884;13.668;2023-05-11T11:39:24;96831.44;;;24.85;45.95
24962;BME280;12992;50.884;13.668;2023-05-11T11:42:04;96864.16;;;25.04;47.79
24962;BME280;12992;50.884;13.668;2023-05-11T11:44:32;96895.44;;;25.48;46.74
24962;BME280;12992;50.884;13.668;2023-05-11T11:47:13;96842.66;;;25.20;46.10
24962;BME280;12992;50.884;13.668;2023-05-11T11:49:43;96843.09;;;24.59;46.65
24962;BME280;12992;50.884;13.668;2023-05-11T11:54:59;96869.50;;;24.49;47.75
24962;BME280;12992;50.884;13.668;2023-05-11T12:00:06;96860.16;;;24.42;47.37
24962;BME280;12992;50.884;13.668;2023-05-11T12:02:42;96846.00;;;23.38;47.35
24962;BME280;12992;50.884;13.668;2023-05-11T12:05:12;96834.94;;;22.65;48.00
24962;BME280;12992;50.884;13.668;2023-05-11T12:07:42;96856.63;;;22.26;49.52
24962;BME280;12992;50.884;13.668;2023-05-11T12:10:08;96865.47;;;22.77;48.63
24962;BME280;12992;50.884;13.668;2023-05-11T12:12:37;96853.78;;;22.14;48.91
24962;BME280;12992;50.884;13.668;2023-05-11T12:15:03;96855.97;;;21.88;50.82
24962;BME280;12992;50.884;13.668;2023-05-11T12:17:31;96857.13;;;21.45;51.27
24962;BME280;12992;50.884;13.668;2023-05-11T12:20:15;96850.50;;;20.87;51.64
24962;BME280;12992;50.884;13.668;2023-05-11T12:22:42;96867.63;;;20.25;52.87
24962;BME280;12992;50.884;13.668;2023-05-11T12:25:09;96873.38;;;20.02;53.72
24962;BME280;12992;50.884;13.668;2023-05-11T12:27:52;96874.72;;;19.79;53.74
24962;BME280;12992;50.884;13.668;2023-05-11T12:30:28;96876.34;;;19.71;53.28
24962;BME280;12992;50.884;13.668;2023-05-11T12:32:54;96875.00;;;19.69;53.74
24962;BME280;12992;50.884;13.668;2023-05-11T12:35:24;96854.38;;;19.58;51.55
24962;BME280;12992;50.884;13.668;2023-05-11T12:37:50;96869.50;;;19.60;52.37
24962;BME280;12992;50.884;13.668;2023-05-11T12:40:16;96875.53;;;19.71;52.63
24962;BME280;12992;50.884;13.668;2023-05-11T12:42:56;96873.34;;;19.50;53.73
24962;BME280;12992;50.884;13.668;2023-05-11T12:45:23;96878.06;;;19.41;54.38
24962;BME280;12992;50.884;13.668;2023-05-11T12:47:52;96878.56;;;19.52;54.26
24962;BME280;12992;50.884;13.668;2023-05-11T12:50:18;96875.63;;;19.48;54.93
24962;BME280;12992;50.884;13.668;2023-05-11T12:52:44;96892.59;;;19.73;54.40
24962;BME280;12992;50.884;13.668;2023-05-11T12:55:09;96896.63;;;19.93;54.39
24962;BME280;12992;50.884;13.668;2023-05-11T12:57:37;96891.91;;;19.93;54.06
24962;BME280;12992;50.884;13.668;2023-05-11T13:00:06;96885.56;;;20.01;53.08
24962;BME280;12992;50.884;13.668;2023-05-11T13:02:32;96884.75;;;20.01;53.88
24962;BME280;12992;50.884;13.668;2023-05-11T13:04:58;96881.97;;;20.09;52.67
24962;BME280;12992;50.884;13.668;2023-05-11T13:07:26;96871.09;;;19.87;52.99
24962;BME280;12992;50.884;13.668;2023-05-11T13:09:59;96895.75;;;20.27;52.67
24962;BME280;12992;50.884;13.668;2023-05-11T13:12:25;96890.72;;;20.29;51.96
24962;BME280;12992;50.884;13.668;2023-05-11T13:15:11;96883.69;;;20.40;52.25
24962;BME280;12992;50.884;13.668;2023-05-11T13:17:39;96866.81;;;20.33;51.09
24962;BME280;12992;50.884;13.668;2023-05-11T13:22:48;96876.53;;;20.39;50.87
24962;BME280;12992;50.884;13.668;2023-05-11T13:25:15;96857.97;;;20.40;50.31
24962;BME280;12992;50.884;13.668;2023-05-11T13:27:41;96871.81;;;20.48;50.52
24962;BME280;12992;50.884;13.668;2023-05-11T13:30:08;96853.28;;;20.31;50.38
24962;BME280;12992;50.884;13.668;2023-05-11T13:32:33;96858.19;;;20.26;49.70